createdAt,value
2023-02-27T00:02:33.576Z,8.93
2023-02-27T00:05:37.515Z,11.00
2023-02-27T00:08:40.751Z,9.43
2023-02-27T00:11:44.200Z,8.00
2023-02-27T00:14:47.270Z,7.43
2023-02-27T00:17:50.953Z,7.12
2023-02-27T00:20:54.753Z,8.43
2023-02-27T00:24:00.457Z,10.70
2023-02-27T00:27:03.751Z,8.32
2023-02-27T00:30:10.855Z,6.50
2023-02-27T00:33:14.261Z,7.43
2023-02-27T00:36:18.460Z,6.95
2023-02-27T00:39:22.072Z,7.97
2023-02-27T00:42:25.975Z,7.20
2023-02-27T00:45:29.473Z,7.45
2023-02-27T00:48:33.056Z,8.05
2023-02-27T00:51:37.797Z,8.48
2023-02-27T00:54:41.539Z,8.57
2023-02-27T00:57:44.863Z,7.25
2023-02-27T01:00:48.567Z,6.72
2023-02-27T01:03:51.798Z,8.57
2023-02-27T01:06:55.313Z,7.18
2023-02-27T01:09:59.127Z,8.10
2023-02-27T01:13:02.919Z,6.93
2023-02-27T01:16:08.634Z,9.63
2023-02-27T01:19:12.377Z,9.10
2023-02-27T01:22:15.981Z,7.32
2023-02-27T01:25:19.576Z,7.80
2023-02-27T01:28:23.152Z,8.75
2023-02-27T01:31:27.397Z,8.73
2023-02-27T01:34:33.369Z,6.80
2023-02-27T01:37:38.745Z,8.35
2023-02-27T01:40:42.839Z,9.93
2023-02-27T01:44:04.981Z,8.00
2023-02-27T01:47:08.298Z,7.07
2023-02-27T01:50:14.296Z,8.25
2023-02-27T01:53:20.254Z,8.45
2023-02-27T01:56:29.405Z,6.55
2023-02-27T01:59:39.931Z,8.18
2023-02-27T02:02:53.673Z,9.27
2023-02-27T02:06:00.094Z,7.23
2023-02-27T02:09:04.667Z,8.50
2023-02-27T02:12:08.982Z,7.40
2023-02-27T02:15:12.462Z,8.07
2023-02-27T02:18:19.419Z,6.75
2023-02-27T02:21:52.097Z,7.28
2023-02-27T02:25:21.822Z,7.72
2023-02-27T02:28:54.905Z,7.15
2023-02-27T02:32:16.330Z,7.53
2023-02-27T02:35:47.012Z,6.72
2023-02-27T02:39:05.463Z,7.50
2023-02-27T02:42:39.254Z,7.40
2023-02-27T02:45:52.836Z,6.50
2023-02-27T02:49:07.369Z,7.17
2023-02-27T02:52:10.629Z,7.40
2023-02-27T02:55:24.354Z,7.03
2023-02-27T02:58:37.420Z,6.75
2023-02-27T03:01:46.581Z,7.68
2023-02-27T03:04:58.935Z,6.60
2023-02-27T03:08:09.110Z,6.93
2023-02-27T03:11:12.555Z,7.70
2023-02-27T03:14:27.285Z,7.12
2023-02-27T03:17:48.793Z,8.45
2023-02-27T03:20:58.214Z,7.63
2023-02-27T03:24:04.111Z,8.80
2023-02-27T03:27:10.087Z,9.30
2023-02-27T03:30:20.018Z,6.95
2023-02-27T03:33:31.948Z,9.52
2023-02-27T03:36:48.676Z,6.90
2023-02-27T03:40:06.655Z,8.73
2023-02-27T03:43:33.009Z,9.37
2023-02-27T03:46:38.420Z,9.55
2023-02-27T03:49:41.824Z,10.13
2023-02-27T03:52:46.347Z,7.77
2023-02-27T03:55:52.402Z,9.88
2023-02-27T03:58:56.761Z,9.13
2023-02-27T04:02:02.749Z,8.85
2023-02-27T04:05:08.268Z,8.68
2023-02-27T04:08:22.505Z,6.90
2023-02-27T04:11:52.796Z,9.48
2023-02-27T04:15:23.631Z,7.80
2023-02-27T04:18:57.393Z,10.43
2023-02-27T04:22:00.491Z,9.23
2023-02-27T04:25:37.117Z,7.13
2023-02-27T04:29:08.065Z,10.15
2023-02-27T04:32:21.964Z,9.45
2023-02-27T04:35:45.470Z,8.30
2023-02-27T04:38:57.026Z,6.85
2023-02-27T04:42:04.181Z,7.32
2023-02-27T04:45:14.293Z,10.38
2023-02-27T04:48:34.808Z,8.73
2023-02-27T04:51:52.042Z,7.53
2023-02-27T04:55:18.030Z,7.53
2023-02-27T04:58:35.488Z,7.07
2023-02-27T05:01:43.615Z,8.15
2023-02-27T05:04:49.858Z,7.68
2023-02-27T05:08:00.033Z,13.13
2023-02-27T05:11:12.149Z,7.37
2023-02-27T05:14:34.879Z,8.63
2023-02-27T05:17:48.219Z,7.72
2023-02-27T05:21:09.753Z,10.57
2023-02-27T05:24:24.467Z,10.35
2023-02-27T05:27:31.362Z,12.80
2023-02-27T05:30:44.792Z,9.23
2023-02-27T05:34:24.352Z,8.90
2023-02-27T05:37:50.657Z,9.73
2023-02-27T05:41:22.842Z,8.43
2023-02-27T05:44:31.276Z,9.57
2023-02-27T05:47:39.902Z,8.18
2023-02-27T05:50:46.295Z,8.88
2023-02-27T05:53:58.493Z,11.10
2023-02-27T05:57:05.637Z,9.27
2023-02-27T06:00:12.330Z,8.75
2023-02-27T06:03:16.989Z,9.63
2023-02-27T06:06:20.548Z,8.40
2023-02-27T06:09:25.133Z,21.17
2023-02-27T06:12:29.641Z,11.52
2023-02-27T06:15:33.184Z,9.80
2023-02-27T06:18:36.280Z,11.55
2023-02-27T06:21:39.894Z,18.30
2023-02-27T06:24:43.010Z,31.40
2023-02-27T06:27:46.473Z,18.30
2023-02-27T06:30:57.451Z,10.98
2023-02-27T06:34:01.503Z,8.27
2023-02-27T06:37:04.568Z,7.70
2023-02-27T06:40:11.857Z,8.38
2023-02-27T06:43:15.682Z,9.32
2023-02-27T06:46:19.177Z,7.60
2023-02-27T06:49:23.432Z,12.63
2023-02-27T06:52:27.405Z,6.68
2023-02-27T06:55:30.433Z,14.60
2023-02-27T06:58:33.866Z,10.50
2023-02-27T07:01:37.402Z,10.00
2023-02-27T07:04:41.304Z,11.37
2023-02-27T07:07:44.699Z,12.35
2023-02-27T07:10:49.815Z,10.20
2023-02-27T07:13:53.280Z,10.10
2023-02-27T07:16:57.652Z,8.35
2023-02-27T07:20:00.922Z,11.93
2023-02-27T07:23:04.427Z,9.27
2023-02-27T07:26:07.854Z,8.43
2023-02-27T07:29:11.400Z,8.35
2023-02-27T07:32:14.504Z,13.88
2023-02-27T07:35:18.737Z,6.87
2023-02-27T07:38:24.166Z,8.05
2023-02-27T07:41:30.728Z,10.18
2023-02-27T07:44:35.845Z,10.05
2023-02-27T07:47:39.175Z,10.02
2023-02-27T07:50:42.230Z,8.18
2023-02-27T07:53:46.245Z,5.97
2023-02-27T07:56:49.433Z,12.70
2023-02-27T07:59:52.830Z,11.98
2023-02-27T08:02:56.205Z,6.75
2023-02-27T08:06:02.341Z,13.90
2023-02-27T08:09:06.288Z,12.27
2023-02-27T08:12:09.756Z,10.52
2023-02-27T08:15:13.127Z,6.12
2023-02-27T08:18:16.540Z,9.13
2023-02-27T08:21:19.719Z,6.28
2023-02-27T08:24:23.616Z,22.35
2023-02-27T08:27:26.550Z,7.27
2023-02-27T08:30:30.174Z,7.18
2023-02-27T08:33:33.988Z,6.45
2023-02-27T08:36:37.850Z,6.70
2023-02-27T08:39:41.188Z,7.80
2023-02-27T08:42:44.825Z,6.37
2023-02-27T08:45:48.983Z,6.28
2023-02-27T08:48:52.814Z,7.20
2023-02-27T08:51:56.138Z,8.38
2023-02-27T08:55:00.466Z,7.78
2023-02-27T08:58:04.953Z,7.63
2023-02-27T09:01:08.664Z,5.53
2023-02-27T09:04:12.460Z,5.87
2023-02-27T09:07:15.779Z,6.00
2023-02-27T09:10:19.546Z,6.45
2023-02-27T09:13:22.795Z,5.75
2023-02-27T09:16:26.116Z,7.68
2023-02-27T09:19:29.564Z,7.43
2023-02-27T09:22:32.612Z,5.53
2023-02-27T09:25:36.661Z,7.03
2023-02-27T09:28:40.157Z,6.40
2023-02-27T09:31:43.883Z,6.85
2023-02-27T09:34:47.130Z,11.43
2023-02-27T09:37:50.666Z,6.50
2023-02-27T09:40:56.852Z,6.40
2023-02-27T09:44:01.774Z,6.68
2023-02-27T09:47:11.036Z,5.85
2023-02-27T09:50:25.247Z,6.12
2023-02-27T09:53:42.361Z,5.57
2023-02-27T09:56:52.573Z,6.68
2023-02-27T10:00:02.688Z,6.60
2023-02-27T10:03:28.859Z,7.85
2023-02-27T10:06:44.547Z,7.87
2023-02-27T10:10:04.858Z,7.78
2023-02-27T10:13:25.985Z,5.50
2023-02-27T10:16:32.534Z,5.70
2023-02-27T10:19:37.890Z,6.72
2023-02-27T10:22:45.932Z,7.83
2023-02-27T10:25:52.052Z,7.20
2023-02-27T10:28:55.129Z,7.65
2023-02-27T10:32:07.427Z,5.95
2023-02-27T10:35:33.126Z,8.20
2023-02-27T10:38:41.920Z,8.68
2023-02-27T10:41:46.912Z,8.77
2023-02-27T10:44:54.011Z,6.85
2023-02-27T10:47:58.032Z,6.50
2023-02-27T10:51:38.366Z,7.45
2023-02-27T10:54:42.959Z,8.90
2023-02-27T10:57:47.027Z,9.90
2023-02-27T11:00:57.268Z,8.60
2023-02-27T11:04:00.686Z,10.88
2023-02-27T11:07:09.530Z,6.20
2023-02-27T11:10:28.534Z,7.37
2023-02-27T11:13:34.639Z,7.07
2023-02-27T11:16:53.627Z,9.18
2023-02-27T11:19:58.112Z,5.90
2023-02-27T11:23:07.816Z,9.75
2023-02-27T11:26:20.892Z,9.55
2023-02-27T11:29:24.289Z,6.68
2023-02-27T11:32:35.766Z,6.35
2023-02-27T11:35:39.744Z,9.48
2023-02-27T11:38:54.261Z,6.43
2023-02-27T11:42:05.522Z,7.40
2023-02-27T11:46:24.963Z,7.20
2023-02-27T11:48:51.040Z,10.43
2023-02-27T11:52:27.493Z,8.00
2023-02-27T11:55:32.527Z,8.02
2023-02-27T11:58:43.061Z,9.10
2023-02-27T12:01:55.195Z,8.82
2023-02-27T12:05:32.498Z,7.60
2023-02-27T12:08:46.479Z,6.12
2023-02-27T12:11:52.237Z,9.75
2023-02-27T12:15:05.982Z,9.25
2023-02-27T12:18:24.092Z,8.43
2023-02-27T12:21:44.107Z,9.30
2023-02-27T12:24:53.105Z,6.65
2023-02-27T12:28:06.420Z,6.97
2023-02-27T12:31:34.178Z,8.25
2023-02-27T12:34:46.668Z,7.25
2023-02-27T12:37:51.265Z,5.75
2023-02-27T12:41:13.326Z,10.00
2023-02-27T12:44:26.825Z,10.15
2023-02-27T12:47:51.796Z,13.18
2023-02-27T12:51:04.700Z,8.63
2023-02-27T12:54:16.877Z,9.80
2023-02-27T12:57:37.403Z,8.07
2023-02-27T13:00:48.626Z,6.37
2023-02-27T13:04:13.745Z,7.90
2023-02-27T13:07:35.983Z,5.62
2023-02-27T13:10:51.681Z,7.60
2023-02-27T13:14:02.373Z,11.12
2023-02-27T13:17:40.210Z,6.78
2023-02-27T13:20:57.322Z,6.43
2023-02-27T13:24:15.576Z,6.27
2023-02-27T13:27:32.548Z,9.00
2023-02-27T13:30:42.351Z,6.45
2023-02-27T13:33:59.801Z,7.68
2023-02-27T13:37:05.802Z,8.15
2023-02-27T13:40:29.081Z,7.20
2023-02-27T13:43:51.066Z,8.07
2023-02-27T13:46:55.049Z,8.60
2023-02-27T13:50:01.680Z,7.95
2023-02-27T13:53:18.209Z,8.00
2023-02-27T13:56:25.111Z,7.50
2023-02-27T13:59:44.589Z,16.12
2023-02-27T14:03:09.139Z,13.85
2023-02-27T14:06:13.058Z,9.90
2023-02-27T14:09:20.906Z,9.40
2023-02-27T14:12:44.528Z,8.02
2023-02-27T14:15:55.381Z,8.57
2023-02-27T14:19:01.259Z,8.90
2023-02-27T14:22:16.843Z,10.68
2023-02-27T14:25:30.711Z,11.00
2023-02-27T14:28:42.066Z,6.97
2023-02-27T14:31:46.974Z,10.25
2023-02-27T14:34:52.264Z,8.90
2023-02-27T14:38:03.977Z,9.70
2023-02-27T14:41:29.991Z,12.67
2023-02-27T14:44:47.338Z,11.05
2023-02-27T14:47:51.953Z,8.98
2023-02-27T14:50:58.073Z,7.85
2023-02-27T14:54:16.241Z,12.85
2023-02-27T14:57:29.023Z,8.82
2023-02-27T15:00:37.047Z,7.57
2023-02-27T15:03:54.500Z,8.80
2023-02-27T15:06:59.819Z,8.77
2023-02-27T15:10:06.349Z,11.77
2023-02-27T15:13:25.168Z,9.73
2023-02-27T15:16:35.133Z,10.45
2023-02-27T15:19:47.593Z,10.90
2023-02-27T15:22:51.356Z,8.05
2023-02-27T15:25:59.732Z,9.73
2023-02-27T15:29:05.776Z,10.60
2023-02-27T15:32:26.372Z,10.00
2023-02-27T15:35:36.059Z,10.18
2023-02-27T15:38:40.702Z,8.15
2023-02-27T15:42:06.904Z,10.57
2023-02-27T15:45:20.054Z,8.00
2023-02-27T15:48:24.080Z,13.50
2023-02-27T15:51:29.167Z,10.48
2023-02-27T15:54:35.262Z,8.25
2023-02-27T15:57:38.585Z,11.20
2023-02-27T16:00:42.636Z,10.23
2023-02-27T16:03:49.565Z,10.55
2023-02-27T16:07:06.441Z,11.38
2023-02-27T16:10:22.259Z,8.75
2023-02-27T16:13:25.416Z,9.63
2023-02-27T16:16:36.295Z,9.30
2023-02-27T16:19:40.712Z,8.10
2023-02-27T16:23:05.576Z,26.73
2023-02-27T16:26:32.144Z,19.08
2023-02-27T16:29:45.100Z,16.23
2023-02-27T16:32:48.846Z,20.48
2023-02-27T16:36:13.067Z,19.23
2023-02-27T16:39:16.423Z,32.15
2023-02-27T16:42:21.096Z,26.27
2023-02-27T16:45:29.356Z,21.45
2023-02-27T16:48:33.292Z,20.77
2023-02-27T16:51:37.965Z,17.90
2023-02-27T16:54:41.968Z,21.30
2023-02-27T16:57:45.317Z,25.15
2023-02-27T17:00:48.994Z,22.10
2023-02-27T17:03:53.316Z,18.45
2023-02-27T17:06:58.862Z,29.63
2023-02-27T17:10:03.142Z,20.73
2023-02-27T17:13:07.151Z,25.98
2023-02-27T17:16:20.404Z,21.15
2023-02-27T17:19:28.199Z,25.17
2023-02-27T17:22:35.985Z,26.87
2023-02-27T17:25:42.463Z,32.33
2023-02-27T17:28:46.081Z,41.10
2023-02-27T17:31:50.677Z,38.20
2023-02-27T17:34:55.709Z,37.88
2023-02-27T17:38:00.631Z,34.25
2023-02-27T17:41:10.017Z,40.63
2023-02-27T17:44:14.135Z,49.22
2023-02-27T17:47:18.493Z,46.53
2023-02-27T17:50:32.399Z,47.25
2023-02-27T17:53:37.574Z,52.67
2023-02-27T17:56:42.033Z,63.30
2023-02-27T17:59:46.220Z,58.97
2023-02-27T18:02:50.965Z,54.13
2023-02-27T18:05:55.240Z,34.47
2023-02-27T18:08:59.928Z,29.30
2023-02-27T18:12:05.942Z,26.40
2023-02-27T18:15:10.953Z,24.12
2023-02-27T18:18:15.929Z,24.83
2023-02-27T18:21:23.228Z,21.37
2023-02-27T18:24:28.325Z,20.53
2023-02-27T18:27:33.179Z,18.30
2023-02-27T18:30:40.259Z,20.25
2023-02-27T18:33:44.383Z,21.63
2023-02-27T18:36:52.155Z,21.40
2023-02-27T18:39:57.668Z,20.33
2023-02-27T18:43:02.142Z,15.27
2023-02-27T18:46:07.927Z,21.50
2023-02-27T18:49:13.285Z,15.57
2023-02-27T18:52:18.104Z,18.80
2023-02-27T18:55:22.540Z,15.77
2023-02-27T18:58:26.187Z,18.95
2023-02-27T19:01:33.251Z,16.00
2023-02-27T19:04:37.877Z,23.63
2023-02-27T19:07:43.210Z,20.95
2023-02-27T19:10:48.063Z,20.70
2023-02-27T19:13:53.923Z,15.90
2023-02-27T19:17:01.003Z,10.30
2023-02-27T19:20:07.490Z,13.05
2023-02-27T19:23:15.227Z,16.20
2023-02-27T19:26:20.405Z,18.83
2023-02-27T19:29:24.273Z,16.50
2023-02-27T19:32:35.858Z,24.17
2023-02-27T19:35:43.177Z,22.93
2023-02-27T19:38:49.611Z,26.70
2023-02-27T19:41:54.768Z,27.02
2023-02-27T19:45:01.444Z,17.50
2023-02-27T19:48:06.188Z,15.82
2023-02-27T19:51:13.711Z,17.67
2023-02-27T19:54:18.326Z,20.65
2023-02-27T19:57:22.662Z,18.70
2023-02-27T20:00:27.300Z,32.58
2023-02-27T20:03:33.079Z,23.50
2023-02-27T20:06:42.585Z,32.63
2023-02-27T20:09:47.909Z,30.12
2023-02-27T20:12:52.738Z,27.33
2023-02-27T20:16:04.957Z,37.75
2023-02-27T20:19:15.100Z,25.95
2023-02-27T20:22:23.450Z,28.00
2023-02-27T20:25:30.494Z,26.15
2023-02-27T20:28:36.276Z,22.93
2023-02-27T20:31:44.839Z,23.05
2023-02-27T20:34:54.181Z,22.52
2023-02-27T20:37:59.853Z,24.13
2023-02-27T20:41:06.130Z,22.02
2023-02-27T20:44:12.536Z,25.40
2023-02-27T20:47:17.920Z,29.00
2023-02-27T20:50:22.149Z,20.30
2023-02-27T20:53:28.110Z,26.20
2023-02-27T20:56:38.711Z,22.83
2023-02-27T20:59:50.722Z,25.80
2023-02-27T21:02:56.545Z,19.65
2023-02-27T21:06:00.866Z,23.33
2023-02-27T21:09:06.804Z,24.37
2023-02-27T21:12:11.939Z,27.48
2023-02-27T21:15:15.138Z,28.48
2023-02-27T21:18:18.864Z,25.88
2023-02-27T21:21:26.114Z,25.98
2023-02-27T21:24:32.304Z,30.88
2023-02-27T21:27:35.652Z,28.67
2023-02-27T21:30:41.528Z,20.87
2023-02-27T21:33:46.140Z,26.62
2023-02-27T21:36:51.118Z,22.50
2023-02-27T21:39:56.847Z,25.30
2023-02-27T21:43:00.600Z,25.02
2023-02-27T21:46:08.227Z,31.33
2023-02-27T21:49:20.621Z,27.05
2023-02-27T21:52:23.860Z,27.83
2023-02-27T21:55:27.427Z,26.40
2023-02-27T21:58:30.969Z,34.80
2023-02-27T22:01:35.998Z,29.17
2023-02-27T22:04:42.429Z,35.63
2023-02-27T22:07:45.675Z,30.83
2023-02-27T22:10:49.218Z,33.00
2023-02-27T22:13:52.751Z,34.53
2023-02-27T22:16:56.171Z,45.63
2023-02-27T22:19:59.350Z,38.70
2023-02-27T22:23:04.202Z,45.08
2023-02-27T22:26:13.695Z,44.22
2023-02-27T22:29:17.473Z,47.22
2023-02-27T22:32:20.761Z,41.90
2023-02-27T22:35:25.265Z,38.08
2023-02-27T22:38:29.169Z,43.17
2023-02-27T22:41:36.976Z,40.63
2023-02-27T22:44:40.103Z,37.40
2023-02-27T22:47:44.495Z,40.53
2023-02-27T22:50:57.026Z,46.55
2023-02-27T22:54:03.181Z,40.25
2023-02-27T22:57:06.301Z,39.88
2023-02-27T23:00:11.804Z,43.70
2023-02-27T23:03:15.578Z,49.00
2023-02-27T23:06:22.039Z,44.42
2023-02-27T23:09:27.331Z,52.85
2023-02-27T23:12:31.013Z,47.20
2023-02-27T23:15:35.699Z,39.67
2023-02-27T23:18:41.013Z,44.63
2023-02-27T23:21:44.258Z,43.97
2023-02-27T23:24:48.289Z,43.30
2023-02-27T23:27:51.411Z,41.58
2023-02-27T23:30:55.242Z,38.10
2023-02-27T23:33:58.656Z,41.47
2023-02-27T23:37:04.532Z,40.97
2023-02-27T23:40:08.516Z,45.47
2023-02-27T23:43:31.151Z,44.30
2023-02-27T23:46:34.287Z,45.90
2023-02-27T23:49:37.991Z,40.50
2023-02-27T23:52:41.146Z,44.13
2023-02-27T23:55:44.725Z,35.72
2023-02-27T23:58:48.044Z,31.52
